sensor_id;sensor_type;location;lat;lon;timestamp;temperature;humidity
36212;DHT22;22247;48.586;13.492;2023-06-19T00:01:40;13.40;99.90
36212;DHT22;22247;48.586;13.492;2023-06-19T00:04:05;13.40;99.90
36212;DHT22;22247;48.586;13.492;2023-06-19T00:06:30;13.40;99.90
36212;DHT22;22247;48.586;13.492;2023-06-19T00:08:54;13.30;99.90
36212;DHT22;22247;48.586;13.492;2023-06-19T00:11:19;13.30;99.90
36212;DHT22;22247;48.586;13.492;2023-06-19T00:13:43;13.20;99.90
36212;DHT22;22247;48.586;13.492;2023-06-19T00:16:08;13.20;99.90
36212;DHT22;22247;48.586;13.492;2023-06-19T00:18:35;13.10;99.90
36212;DHT22;22247;48.586;13.492;2023-06-19T00:21:04;13.10;99.90
36212;DHT22;22247;48.586;13.492;2023-06-19T00:23:30;13.10;99.90
36212;DHT22;22247;48.586;13.492;2023-06-19T00:25:54;13.10;99.90
36212;DHT22;22247;48.586;13.492;2023-06-19T00:28:19;13.10;99.90
36212;DHT22;22247;48.586;13.492;2023-06-19T00:30:45;13.00;99.90
36212;DHT22;22247;48.586;13.492;2023-06-19T00:33:12;13.10;99.90
36212;DHT22;22247;48.586;13.492;2023-06-19T00:38:02;13.10;99.90
36212;DHT22;22247;48.586;13.492;2023-06-19T00:40:31;13.10;99.90
36212;DHT22;22247;48.586;13.492;2023-06-19T00:42:56;13.00;99.90
36212;DHT22;22247;48.586;13.492;2023-06-19T00:45:21;13.00;99.90
36212;DHT22;22247;48.586;13.492;2023-06-19T00:47:45;13.00;99.90
36212;DHT22;22247;48.586;13.492;2023-06-19T00:50:12;12.90;99.90
36212;DHT22;22247;48.586;13.492;2023-06-19T00:52:37;12.90;99.90
36212;DHT22;22247;48.586;13.492;2023-06-19T00:55:05;12.90;99.90
36212;DHT22;22247;48.586;13.492;2023-06-19T00:57:33;12.80;99.90
36212;DHT22;22247;48.586;13.492;2023-06-19T01:00:00;12.70;99.90
36212;DHT22;22247;48.586;13.492;2023-06-19T01:02:26;12.70;99.90
36212;DHT22;22247;48.586;13.492;2023-06-19T01:04:54;12.60;99.90
36212;DHT22;22247;48.586;13.492;2023-06-19T01:07:31;12.60;99.90
36212;DHT22;22247;48.586;13.492;2023-06-19T01:10:02;12.50;99.90
36212;DHT22;22247;48.586;13.492;2023-06-19T01:12:36;14.10;99.90
36212;DHT22;22247;48.586;13.492;2023-06-19T01:15:03;12.40;99.90
36212;DHT22;22247;48.586;13.492;2023-06-19T01:17:31;12.40;99.90
36212;DHT22;22247;48.586;13.492;2023-06-19T01:19:59;12.30;99.90
36212;DHT22;22247;48.586;13.492;2023-06-19T01:24:56;12.30;99.90
36212;DHT22;22247;48.586;13.492;2023-06-19T01:27:25;13.00;99.90
36212;DHT22;22247;48.586;13.492;2023-06-19T01:29:50;12.40;99.90
36212;DHT22;22247;48.586;13.492;2023-06-19T01:32:22;12.40;99.90
36212;DHT22;22247;48.586;13.492;2023-06-19T01:34:54;12.50;99.90
36212;DHT22;22247;48.586;13.492;2023-06-19T01:37:24;12.50;99.90
36212;DHT22;22247;48.586;13.492;2023-06-19T01:39:51;12.40;99.90
36212;DHT22;22247;48.586;13.492;2023-06-19T01:42:19;12.50;99.90
36212;DHT22;22247;48.586;13.492;2023-06-19T01:44:46;12.50;99.90
36212;DHT22;22247;48.586;13.492;2023-06-19T01:47:11;12.60;99.90
36212;DHT22;22247;48.586;13.492;2023-06-19T01:49:37;12.60;99.90
36212;DHT22;22247;48.586;13.492;2023-06-19T01:52:01;12.60;99.90
36212;DHT22;22247;48.586;13.492;2023-06-19T01:54:26;12.70;99.90
36212;DHT22;22247;48.586;13.492;2023-06-19T01:56:54;12.70;99.90
36212;DHT22;22247;48.586;13.492;2023-06-19T01:59:21;12.80;99.90
36212;DHT22;22247;48.586;13.492;2023-06-19T02:01:46;12.90;99.90
36212;DHT22;22247;48.586;13.492;2023-06-19T02:04:13;13.00;99.90
36212;DHT22;22247;48.586;13.492;2023-06-19T02:06:38;13.30;99.90
36212;DHT22;22247;48.586;13.492;2023-06-19T02:09:05;12.90;99.90
36212;DHT22;22247;48.586;13.492;2023-06-19T02:11:29;12.80;99.90
36212;DHT22;22247;48.586;13.492;2023-06-19T02:13:54;12.90;99.90
36212;DHT22;22247;48.586;13.492;2023-06-19T02:16:21;12.80;99.90
36212;DHT22;22247;48.586;13.492;2023-06-19T02:18:45;12.80;99.90
36212;DHT22;22247;48.586;13.492;2023-06-19T02:21:10;12.80;99.90
36212;DHT22;22247;48.586;13.492;2023-06-19T02:23:34;12.70;99.90
36212;DHT22;22247;48.586;13.492;2023-06-19T02:25:59;12.70;99.90
36212;DHT22;22247;48.586;13.492;2023-06-19T02:28:23;12.60;99.90
36212;DHT22;22247;48.586;13.492;2023-06-19T02:30:48;12.60;99.90
36212;DHT22;22247;48.586;13.492;2023-06-19T02:33:12;12.60;99.90
36212;DHT22;22247;48.586;13.492;2023-06-19T02:35:37;12.50;99.90
36212;DHT22;22247;48.586;13.492;2023-06-19T02:38:02;12.40;99.90
36212;DHT22;22247;48.586;13.492;2023-06-19T02:40:29;12.50;99.90
36212;DHT22;22247;48.586;13.492;2023-06-19T02:45:19;12.30;99.90
36212;DHT22;22247;48.586;13.492;2023-06-19T02:50:11;12.20;99.90
36212;DHT22;22247;48.586;13.492;2023-06-19T02:52:36;12.20;99.90
36212;DHT22;22247;48.586;13.492;2023-06-19T02:55:00;12.20;99.90
36212;DHT22;22247;48.586;13.492;2023-06-19T02:57:27;12.20;99.90
36212;DHT22;22247;48.586;13.492;2023-06-19T02:59:52;12.10;99.90
36212;DHT22;22247;48.586;13.492;2023-06-19T03:02:19;12.00;99.90
36212;DHT22;22247;48.586;13.492;2023-06-19T03:04:43;12.00;99.90
36212;DHT22;22247;48.586;13.492;2023-06-19T03:07:11;12.00;99.90
36212;DHT22;22247;48.586;13.492;2023-06-19T03:09:38;12.00;99.90
36212;DHT22;22247;48.586;13.492;2023-06-19T03:12:02;12.00;99.90
36212;DHT22;22247;48.586;13.492;2023-06-19T03:14:27;12.00;99.90
36212;DHT22;22247;48.586;13.492;2023-06-19T03:16:51;12.10;99.90
36212;DHT22;22247;48.586;13.492;2023-06-19T03:19:19;12.10;99.90
36212;DHT22;22247;48.586;13.492;2023-06-19T03:21:46;12.20;99.90
36212;DHT22;22247;48.586;13.492;2023-06-19T03:24:10;12.30;99.90
36212;DHT22;22247;48.586;13.492;2023-06-19T03:26:39;12.30;99.90
36212;DHT22;22247;48.586;13.492;2023-06-19T03:31:29;12.40;99.90
36212;DHT22;22247;48.586;13.492;2023-06-19T03:33:55;12.40;99.90
36212;DHT22;22247;48.586;13.492;2023-06-19T03:36:21;12.40;99.90
36212;DHT22;22247;48.586;13.492;2023-06-19T03:38:51;12.40;99.90
36212;DHT22;22247;48.586;13.492;2023-06-19T03:41:16;12.40;99.90
36212;DHT22;22247;48.586;13.492;2023-06-19T03:43:40;12.40;99.90
36212;DHT22;22247;48.586;13.492;2023-06-19T03:46:05;12.40;99.90
36212;DHT22;22247;48.586;13.492;2023-06-19T03:48:30;12.50;99.90
36212;DHT22;22247;48.586;13.492;2023-06-19T03:50:54;12.50;99.90
36212;DHT22;22247;48.586;13.492;2023-06-19T03:53:22;12.60;99.90
36212;DHT22;22247;48.586;13.492;2023-06-19T03:55:46;12.70;99.90
36212;DHT22;22247;48.586;13.492;2023-06-19T03:58:13;12.70;99.90
36212;DHT22;22247;48.586;13.492;2023-06-19T04:00:38;12.70;99.90
36212;DHT22;22247;48.586;13.492;2023-06-19T04:03:07;12.70;99.90
36212;DHT22;22247;48.586;13.492;2023-06-19T04:05:34;12.90;99.90
36212;DHT22;22247;48.586;13.492;2023-06-19T04:08:03;13.10;99.90
36212;DHT22;22247;48.586;13.492;2023-06-19T04:10:31;13.10;99.90
36212;DHT22;22247;48.586;13.492;2023-06-19T04:12:56;13.20;99.90
36212;DHT22;22247;48.586;13.492;2023-06-19T04:15:21;13.20;99.90
36212;DHT22;22247;48.586;13.492;2023-06-19T04:20:11;13.50;99.90
36212;DHT22;22247;48.586;13.492;2023-06-19T04:22:36;13.40;99.90
36212;DHT22;22247;48.586;13.492;2023-06-19T04:25:03;13.60;99.90
36212;DHT22;22247;48.586;13.492;2023-06-19T04:27:28;13.90;99.90
36212;DHT22;22247;48.586;13.492;2023-06-19T04:29:52;14.10;99.90
36212;DHT22;22247;48.586;13.492;2023-06-19T04:34:44;14.20;99.90
36212;DHT22;22247;48.586;13.492;2023-06-19T04:37:15;14.10;99.90
36212;DHT22;22247;48.586;13.492;2023-06-19T04:39:43;14.10;99.90
36212;DHT22;22247;48.586;13.492;2023-06-19T04:42:07;14.10;99.90
36212;DHT22;22247;48.586;13.492;2023-06-19T04:44:32;14.00;99.90
36212;DHT22;22247;48.586;13.492;2023-06-19T04:46:58;14.00;99.90
36212;DHT22;22247;48.586;13.492;2023-06-19T04:49:25;13.90;99.90
36212;DHT22;22247;48.586;13.492;2023-06-19T04:51:49;14.10;99.90
36212;DHT22;22247;48.586;13.492;2023-06-19T04:54:14;14.10;99.90
36212;DHT22;22247;48.586;13.492;2023-06-19T04:56:41;14.20;99.90
36212;DHT22;22247;48.586;13.492;2023-06-19T04:59:06;14.20;99.90
36212;DHT22;22247;48.586;13.492;2023-06-19T05:01:30;14.20;99.90
36212;DHT22;22247;48.586;13.492;2023-06-19T05:03:55;14.10;99.90
36212;DHT22;22247;48.586;13.492;2023-06-19T05:06:24;14.10;99.90
36212;DHT22;22247;48.586;13.492;2023-06-19T05:11:13;14.20;99.90
36212;DHT22;22247;48.586;13.492;2023-06-19T05:13:38;14.20;99.90
36212;DHT22;22247;48.586;13.492;2023-06-19T05:16:03;14.40;99.90
36212;DHT22;22247;48.586;13.492;2023-06-19T05:18:27;14.50;99.90
36212;DHT22;22247;48.586;13.492;2023-06-19T05:20:52;14.60;99.90
36212;DHT22;22247;48.586;13.492;2023-06-19T05:23:17;14.50;99.90
36212;DHT22;22247;48.586;13.492;2023-06-19T05:25:41;14.60;99.90
36212;DHT22;22247;48.586;13.492;2023-06-19T05:28:08;14.70;99.90
36212;DHT22;22247;48.586;13.492;2023-06-19T05:30:32;14.70;99.90
36212;DHT22;22247;48.586;13.492;2023-06-19T05:33:00;14.70;99.90
36212;DHT22;22247;48.586;13.492;2023-06-19T05:35:27;14.70;99.90
36212;DHT22;22247;48.586;13.492;2023-06-19T05:37:54;14.80;99.90
36212;DHT22;22247;48.586;13.492;2023-06-19T05:40:19;14.90;99.90
36212;DHT22;22247;48.586;13.492;2023-06-19T05:42:43;14.90;99.90
36212;DHT22;22247;48.586;13.492;2023-06-19T05:45:08;14.80;99.90
36212;DHT22;22247;48.586;13.492;2023-06-19T05:47:33;14.80;99.90
36212;DHT22;22247;48.586;13.492;2023-06-19T05:49:58;14.80;99.90
36212;DHT22;22247;48.586;13.492;2023-06-19T05:52:22;14.90;99.90
36212;DHT22;22247;48.586;13.492;2023-06-19T05:54:49;15.10;99.90
36212;DHT22;22247;48.586;13.492;2023-06-19T05:57:17;15.10;99.90
36212;DHT22;22247;48.586;13.492;2023-06-19T05:59:45;15.00;99.90
36212;DHT22;22247;48.586;13.492;2023-06-19T06:02:12;14.90;99.90
36212;DHT22;22247;48.586;13.492;2023-06-19T06:04:36;14.70;99.90
36212;DHT22;22247;48.586;13.492;2023-06-19T06:07:03;14.60;99.90
36212;DHT22;22247;48.586;13.492;2023-06-19T06:09:28;14.50;99.90
36212;DHT22;22247;48.586;13.492;2023-06-19T06:11:55;14.50;99.90
36212;DHT22;22247;48.586;13.492;2023-06-19T06:14:43;14.20;99.90
36212;DHT22;22247;48.586;13.492;2023-06-19T06:17:10;14.50;99.90
36212;DHT22;22247;48.586;13.492;2023-06-19T06:22:13;14.40;99.90
36212;DHT22;22247;48.586;13.492;2023-06-19T06:29:08;15.20;99.90
36212;DHT22;22247;48.586;13.492;2023-06-19T06:31:41;14.80;99.90
36212;DHT22;22247;48.586;13.492;2023-06-19T06:34:06;12.90;99.90
36212;DHT22;22247;48.586;13.492;2023-06-19T06:36:30;14.60;99.90
36212;DHT22;22247;48.586;13.492;2023-06-19T06:38:55;14.60;99.90
36212;DHT22;22247;48.586;13.492;2023-06-19T06:41:22;14.60;99.90
36212;DHT22;22247;48.586;13.492;2023-06-19T06:43:46;14.90;99.90
36212;DHT22;22247;48.586;13.492;2023-06-19T06:46:11;14.80;99.90
36212;DHT22;22247;48.586;13.492;2023-06-19T06:48:36;15.00;99.90
36212;DHT22;22247;48.586;13.492;2023-06-19T07:01:42;15.40;99.90
36212;DHT22;22247;48.586;13.492;2023-06-19T07:04:14;15.50;99.90
36212;DHT22;22247;48.586;13.492;2023-06-19T07:15:58;15.80;99.90
36212;DHT22;22247;48.586;13.492;2023-06-19T07:18:25;16.10;99.90
36212;DHT22;22247;48.586;13.492;2023-06-19T07:20:50;16.20;99.90
36212;DHT22;22247;48.586;13.492;2023-06-19T07:23:14;16.40;99.90
36212;DHT22;22247;48.586;13.492;2023-06-19T07:25:39;16.30;99.90
36212;DHT22;22247;48.586;13.492;2023-06-19T07:28:06;16.20;99.90
36212;DHT22;22247;48.586;13.492;2023-06-19T07:30:31;16.60;99.90
36212;DHT22;22247;48.586;13.492;2023-06-19T07:32:55;16.70;99.90
36212;DHT22;22247;48.586;13.492;2023-06-19T07:35:20;16.80;99.90
36212;DHT22;22247;48.586;13.492;2023-06-19T07:37:47;17.00;99.90
36212;DHT22;22247;48.586;13.492;2023-06-19T07:40:14;17.20;99.90
36212;DHT22;22247;48.586;13.492;2023-06-19T07:42:39;17.40;99.90
36212;DHT22;22247;48.586;13.492;2023-06-19T07:45:04;17.40;99.90
36212;DHT22;22247;48.586;13.492;2023-06-19T07:47:31;17.50;99.90
36212;DHT22;22247;48.586;13.492;2023-06-19T07:49:58;17.80;99.90
36212;DHT22;22247;48.586;13.492;2023-06-19T07:52:24;17.80;99.90
36212;DHT22;22247;48.586;13.492;2023-06-19T07:54:54;17.80;99.90
36212;DHT22;22247;48.586;13.492;2023-06-19T07:57:20;18.00;99.90
36212;DHT22;22247;48.586;13.492;2023-06-19T07:59:45;18.10;99.90
36212;DHT22;22247;48.586;13.492;2023-06-19T08:02:10;18.20;99.90
36212;DHT22;22247;48.586;13.492;2023-06-19T08:04:35;18.30;99.90
36212;DHT22;22247;48.586;13.492;2023-06-19T08:06:59;18.40;99.90
36212;DHT22;22247;48.586;13.492;2023-06-19T08:09:24;18.50;99.90
36212;DHT22;22247;48.586;13.492;2023-06-19T08:11:49;18.60;99.90
36212;DHT22;22247;48.586;13.492;2023-06-19T08:14:13;19.00;99.90
36212;DHT22;22247;48.586;13.492;2023-06-19T08:16:45;19.10;99.90
36212;DHT22;22247;48.586;13.492;2023-06-19T08:19:09;19.10;99.90
36212;DHT22;22247;48.586;13.492;2023-06-19T08:21:34;19.10;99.90
36212;DHT22;22247;48.586;13.492;2023-06-19T08:23:58;19.10;99.90
36212;DHT22;22247;48.586;13.492;2023-06-19T08:26:23;19.10;99.90
36212;DHT22;22247;48.586;13.492;2023-06-19T08:28:48;19.10;99.90
36212;DHT22;22247;48.586;13.492;2023-06-19T08:31:12;19.00;99.90
36212;DHT22;22247;48.586;13.492;2023-06-19T08:33:39;19.10;99.90
36212;DHT22;22247;48.586;13.492;2023-06-19T08:36:04;19.20;99.90
36212;DHT22;22247;48.586;13.492;2023-06-19T08:38:29;19.50;99.90
36212;DHT22;22247;48.586;13.492;2023-06-19T08:40:54;19.70;99.90
36212;DHT22;22247;48.586;13.492;2023-06-19T08:43:19;19.80;99.90
36212;DHT22;22247;48.586;13.492;2023-06-19T08:46:14;19.90;99.90
36212;DHT22;22247;48.586;13.492;2023-06-19T08:48:38;20.20;99.90
36212;DHT22;22247;48.586;13.492;2023-06-19T08:51:05;20.40;99.90
36212;DHT22;22247;48.586;13.492;2023-06-19T08:53:35;20.70;99.90
36212;DHT22;22247;48.586;13.492;2023-06-19T09:20:28;22.60;99.90
36212;DHT22;22247;48.586;13.492;2023-06-19T09:22:57;22.30;99.90
36212;DHT22;22247;48.586;13.492;2023-06-19T09:25:22;22.30;99.90
36212;DHT22;22247;48.586;13.492;2023-06-19T09:27:47;22.30;99.90
36212;DHT22;22247;48.586;13.492;2023-06-19T09:30:15;22.40;99.90
36212;DHT22;22247;48.586;13.492;2023-06-19T09:32:40;22.50;99.90
36212;DHT22;22247;48.586;13.492;2023-06-19T09:35:05;22.50;99.90
36212;DHT22;22247;48.586;13.492;2023-06-19T09:37:31;22.50;99.90
36212;DHT22;22247;48.586;13.492;2023-06-19T09:40:02;22.50;99.90
36212;DHT22;22247;48.586;13.492;2023-06-19T09:42:42;22.40;99.90
36212;DHT22;22247;48.586;13.492;2023-06-19T09:45:13;22.30;99.90
36212;DHT22;22247;48.586;13.492;2023-06-19T09:47:47;22.20;99.90
36212;DHT22;22247;48.586;13.492;2023-06-19T09:50:15;23.00;99.90
36212;DHT22;22247;48.586;13.492;2023-06-19T09:52:41;22.50;99.90
36212;DHT22;22247;48.586;13.492;2023-06-19T09:55:07;22.80;99.90
36212;DHT22;22247;48.586;13.492;2023-06-19T09:57:33;23.20;99.90
36212;DHT22;22247;48.586;13.492;2023-06-19T10:00:01;23.50;99.90
36212;DHT22;22247;48.586;13.492;2023-06-19T10:02:34;23.80;99.90
36212;DHT22;22247;48.586;13.492;2023-06-19T10:04:59;24.10;99.90
36212;DHT22;22247;48.586;13.492;2023-06-19T10:07:32;24.50;99.90
36212;DHT22;22247;48.586;13.492;2023-06-19T10:10:03;24.70;99.90
36212;DHT22;22247;48.586;13.492;2023-06-19T10:12:43;24.90;99.90
36212;DHT22;22247;48.586;13.492;2023-06-19T10:15:22;25.00;99.90
36212;DHT22;22247;48.586;13.492;2023-06-19T10:18:01;25.10;99.90
36212;DHT22;22247;48.586;13.492;2023-06-19T10:20:29;25.30;99.90
36212;DHT22;22247;48.586;13.492;2023-06-19T10:25:27;25.50;99.90
36212;DHT22;22247;48.586;13.492;2023-06-19T10:27:51;25.70;99.60
36212;DHT22;22247;48.586;13.492;2023-06-19T10:30:19;25.80;99.90
36212;DHT22;22247;48.586;13.492;2023-06-19T10:32:43;26.00;97.20
36212;DHT22;22247;48.586;13.492;2023-06-19T10:35:15;26.00;98.90
36212;DHT22;22247;48.586;13.492;2023-06-19T10:37:45;26.00;98.50
36212;DHT22;22247;48.586;13.492;2023-06-19T10:40:15;26.10;99.20
36212;DHT22;22247;48.586;13.492;2023-06-19T10:42:40;26.50;96.50
36212;DHT22;22247;48.586;13.492;2023-06-19T10:45:06;26.80;94.90
36212;DHT22;22247;48.586;13.492;2023-06-19T10:47:32;27.00;95.90
36212;DHT22;22247;48.586;13.492;2023-06-19T10:49:57;27.10;94.10
36212;DHT22;22247;48.586;13.492;2023-06-19T10:52:22;26.70;93.20
36212;DHT22;22247;48.586;13.492;2023-06-19T10:54:53;26.60;95.00
36212;DHT22;22247;48.586;13.492;2023-06-19T10:57:18;26.80;93.60
36212;DHT22;22247;48.586;13.492;2023-06-19T10:59:43;27.00;90.30
36212;DHT22;22247;48.586;13.492;2023-06-19T11:02:08;27.00;93.00
36212;DHT22;22247;48.586;13.492;2023-06-19T11:04:37;27.00;94.70
36212;DHT22;22247;48.586;13.492;2023-06-19T11:07:05;27.00;91.90
36212;DHT22;22247;48.586;13.492;2023-06-19T11:09:32;26.90;91.80
36212;DHT22;22247;48.586;13.492;2023-06-19T11:14:22;26.70;90.10
36212;DHT22;22247;48.586;13.492;2023-06-19T11:16:47;26.70;91.30
36212;DHT22;22247;48.586;13.492;2023-06-19T11:19:20;26.80;90.70
36212;DHT22;22247;48.586;13.492;2023-06-19T11:21:47;27.20;91.10
36212;DHT22;22247;48.586;13.492;2023-06-19T11:24:13;27.50;90.50
36212;DHT22;22247;48.586;13.492;2023-06-19T11:26:45;27.40;89.60
36212;DHT22;22247;48.586;13.492;2023-06-19T11:29:24;27.50;91.60
36212;DHT22;22247;48.586;13.492;2023-06-19T11:32:04;27.60;90.80
36212;DHT22;22247;48.586;13.492;2023-06-19T11:34:33;27.70;89.30
36212;DHT22;22247;48.586;13.492;2023-06-19T11:36:58;27.90;88.10
36212;DHT22;22247;48.586;13.492;2023-06-19T11:39:22;27.80;87.00
36212;DHT22;22247;48.586;13.492;2023-06-19T11:41:47;27.80;90.00
36212;DHT22;22247;48.586;13.492;2023-06-19T11:44:11;28.10;87.90
36212;DHT22;22247;48.586;13.492;2023-06-19T11:46:39;28.10;86.50
36212;DHT22;22247;48.586;13.492;2023-06-19T11:51:36;28.10;85.10
36212;DHT22;22247;48.586;13.492;2023-06-19T11:54:01;28.10;88.20
36212;DHT22;22247;48.586;13.492;2023-06-19T11:56:28;28.30;82.20
36212;DHT22;22247;48.586;13.492;2023-06-19T11:58:53;28.50;82.00
36212;DHT22;22247;48.586;13.492;2023-06-19T12:01:22;28.80;86.30
36212;DHT22;22247;48.586;13.492;2023-06-19T12:03:49;28.90;85.20
36212;DHT22;22247;48.586;13.492;2023-06-19T12:06:15;28.70;77.90
36212;DHT22;22247;48.586;13.492;2023-06-19T12:08:40;28.80;78.80
36212;DHT22;22247;48.586;13.492;2023-06-19T12:11:08;28.80;81.30
36212;DHT22;22247;48.586;13.492;2023-06-19T12:13:37;29.20;76.60
36212;DHT22;22247;48.586;13.492;2023-06-19T12:16:02;29.20;76.10
36212;DHT22;22247;48.586;13.492;2023-06-19T12:18:34;28.60;73.80
36212;DHT22;22247;48.586;13.492;2023-06-19T12:20:59;28.70;76.30
36212;DHT22;22247;48.586;13.492;2023-06-19T12:23:23;28.30;78.20
36212;DHT22;22247;48.586;13.492;2023-06-19T12:25:48;28.30;79.40
36212;DHT22;22247;48.586;13.492;2023-06-19T12:28:15;28.40;77.70
36212;DHT22;22247;48.586;13.492;2023-06-19T12:30:42;28.40;79.20
36212;DHT22;22247;48.586;13.492;2023-06-19T12:33:08;28.30;78.80
36212;DHT22;22247;48.586;13.492;2023-06-19T12:35:33;28.30;77.50
36212;DHT22;22247;48.586;13.492;2023-06-19T12:37:58;28.30;78.30
36212;DHT22;22247;48.586;13.492;2023-06-19T12:40:23;28.20;81.50
36212;DHT22;22247;48.586;13.492;2023-06-19T12:42:49;28.20;82.50
36212;DHT22;22247;48.586;13.492;2023-06-19T12:45:15;28.00;82.40
36212;DHT22;22247;48.586;13.492;2023-06-19T12:47:39;28.20;88.30
36212;DHT22;22247;48.586;13.492;2023-06-19T12:50:04;28.30;80.90
36212;DHT22;22247;48.586;13.492;2023-06-19T12:52:31;28.30;79.80
36212;DHT22;22247;48.586;13.492;2023-06-19T12:54:56;28.30;81.70
36212;DHT22;22247;48.586;13.492;2023-06-19T12:57:20;28.30;86.50
36212;DHT22;22247;48.586;13.492;2023-06-19T12:59:45;28.40;83.40
36212;DHT22;22247;48.586;13.492;2023-06-19T13:02:18;28.60;80.70
36212;DHT22;22247;48.586;13.492;2023-06-19T13:04:43;28.60;83.80
36212;DHT22;22247;48.586;13.492;2023-06-19T13:07:07;28.70;81.70
36212;DHT22;22247;48.586;13.492;2023-06-19T13:09:32;28.60;83.30
36212;DHT22;22247;48.586;13.492;2023-06-19T13:11:56;28.80;77.50
36212;DHT22;22247;48.586;13.492;2023-06-19T13:14:21;28.80;76.80
36212;DHT22;22247;48.586;13.492;2023-06-19T13:16:46;28.70;82.20
36212;DHT22;22247;48.586;13.492;2023-06-19T13:19:10;28.60;81.80
36212;DHT22;22247;48.586;13.492;2023-06-19T13:21:35;28.50;78.50
36212;DHT22;22247;48.586;13.492;2023-06-19T13:24:00;28.30;84.30
36212;DHT22;22247;48.586;13.492;2023-06-19T13:26:24;28.20;84.20
36212;DHT22;22247;48.586;13.492;2023-06-19T13:28:49;28.20;76.20
36212;DHT22;22247;48.586;13.492;2023-06-19T13:31:16;28.40;75.40
36212;DHT22;22247;48.586;13.492;2023-06-19T13:33:41;28.40;80.90
36212;DHT22;22247;48.586;13.492;2023-06-19T13:36:06;28.30;82.20
36212;DHT22;22247;48.586;13.492;2023-06-19T13:38:30;28.20;84.00
36212;DHT22;22247;48.586;13.492;2023-06-19T13:40:56;28.30;79.20
36212;DHT22;22247;48.586;13.492;2023-06-19T13:43:21;28.20;84.40
36212;DHT22;22247;48.586;13.492;2023-06-19T13:45:49;28.30;76.90
36212;DHT22;22247;48.586;13.492;2023-06-19T13:48:14;28.40;80.30
36212;DHT22;22247;48.586;13.492;2023-06-19T13:50:38;28.40;82.60
36212;DHT22;22247;48.586;13.492;2023-06-19T13:53:03;28.50;78.10
36212;DHT22;22247;48.586;13.492;2023-06-19T13:55:30;28.60;76.30
36212;DHT22;22247;48.586;13.492;2023-06-19T13:57:55;28.70;82.10
36212;DHT22;22247;48.586;13.492;2023-06-19T14:00:21;28.80;80.00
36212;DHT22;22247;48.586;13.492;2023-06-19T14:02:46;28.70;82.20
36212;DHT22;22247;48.586;13.492;2023-06-19T14:05:11;28.50;84.80
36212;DHT22;22247;48.586;13.492;2023-06-19T14:07:41;28.80;82.40
36212;DHT22;22247;48.586;13.492;2023-06-19T14:10:09;28.70;86.30
36212;DHT22;22247;48.586;13.492;2023-06-19T14:12:34;28.60;79.10
36212;DHT22;22247;48.586;13.492;2023-06-19T14:15:01;28.50;78.50
36212;DHT22;22247;48.586;13.492;2023-06-19T14:17:25;28.50;83.30
36212;DHT22;22247;48.586;13.492;2023-06-19T14:19:50;28.50;85.00
36212;DHT22;22247;48.586;13.492;2023-06-19T14:22:15;28.50;80.70
36212;DHT22;22247;48.586;13.492;2023-06-19T14:24:44;28.50;84.80
36212;DHT22;22247;48.586;13.492;2023-06-19T14:27:09;28.40;79.70
36212;DHT22;22247;48.586;13.492;2023-06-19T14:29:33;28.60;77.60
36212;DHT22;22247;48.586;13.492;2023-06-19T14:31:58;28.80;84.40
36212;DHT22;22247;48.586;13.492;2023-06-19T14:34:23;28.80;82.30
36212;DHT22;22247;48.586;13.492;2023-06-19T14:36:50;28.60;86.90
36212;DHT22;22247;48.586;13.492;2023-06-19T14:39:15;28.60;90.50
36212;DHT22;22247;48.586;13.492;2023-06-19T14:41:39;28.50;88.50
36212;DHT22;22247;48.586;13.492;2023-06-19T14:44:06;28.50;84.80
36212;DHT22;22247;48.586;13.492;2023-06-19T14:46:31;28.40;86.10
36212;DHT22;22247;48.586;13.492;2023-06-19T14:49:03;28.40;83.50
36212;DHT22;22247;48.586;13.492;2023-06-19T14:51:27;28.50;84.00
36212;DHT22;22247;48.586;13.492;2023-06-19T14:53:52;28.40;87.70
36212;DHT22;22247;48.586;13.492;2023-06-19T14:56:17;28.40;84.60
36212;DHT22;22247;48.586;13.492;2023-06-19T14:58:41;28.20;86.70
36212;DHT22;22247;48.586;13.492;2023-06-19T15:01:07;28.10;88.70
36212;DHT22;22247;48.586;13.492;2023-06-19T15:03:31;27.90;89.20
36212;DHT22;22247;48.586;13.492;2023-06-19T15:05:56;27.70;91.20
36212;DHT22;22247;48.586;13.492;2023-06-19T15:08:25;27.60;92.30
36212;DHT22;22247;48.586;13.492;2023-06-19T15:10:52;27.50;92.90
36212;DHT22;22247;48.586;13.492;2023-06-19T15:13:16;27.50;91.90
36212;DHT22;22247;48.586;13.492;2023-06-19T15:15:42;27.80;91.50
36212;DHT22;22247;48.586;13.492;2023-06-19T15:18:07;27.80;91.70
36212;DHT22;22247;48.586;13.492;2023-06-19T15:20:31;27.70;91.20
36212;DHT22;22247;48.586;13.492;2023-06-19T15:22:56;27.70;92.60
36212;DHT22;22247;48.586;13.492;2023-06-19T15:25:21;28.30;88.00
36212;DHT22;22247;48.586;13.492;2023-06-19T15:27:46;28.90;90.10
36212;DHT22;22247;48.586;13.492;2023-06-19T15:30:11;30.20;87.50
36212;DHT22;22247;48.586;13.492;2023-06-19T15:32:36;31.40;75.60
36212;DHT22;22247;48.586;13.492;2023-06-19T15:35:01;31.90;79.10
36212;DHT22;22247;48.586;13.492;2023-06-19T15:37:25;32.20;76.30
36212;DHT22;22247;48.586;13.492;2023-06-19T15:39:50;32.80;77.30
36212;DHT22;22247;48.586;13.492;2023-06-19T15:42:16;33.10;76.90
36212;DHT22;22247;48.586;13.492;2023-06-19T15:44:41;32.90;78.40
36212;DHT22;22247;48.586;13.492;2023-06-19T15:47:06;33.10;73.70
36212;DHT22;22247;48.586;13.492;2023-06-19T15:49:30;33.10;72.40
36212;DHT22;22247;48.586;13.492;2023-06-19T15:51:59;33.60;73.00
36212;DHT22;22247;48.586;13.492;2023-06-19T15:54:24;33.70;73.60
36212;DHT22;22247;48.586;13.492;2023-06-19T15:56:51;33.80;72.20
36212;DHT22;22247;48.586;13.492;2023-06-19T15:59:16;34.80;67.90
36212;DHT22;22247;48.586;13.492;2023-06-19T16:01:43;34.50;69.70
36212;DHT22;22247;48.586;13.492;2023-06-19T16:04:10;34.10;66.50
36212;DHT22;22247;48.586;13.492;2023-06-19T16:06:34;34.40;66.30
36212;DHT22;22247;48.586;13.492;2023-06-19T16:08:59;34.90;66.50
36212;DHT22;22247;48.586;13.492;2023-06-19T16:11:24;34.60;66.80
36212;DHT22;22247;48.586;13.492;2023-06-19T16:13:48;34.70;69.40
36212;DHT22;22247;48.586;13.492;2023-06-19T16:16:13;34.50;70.20
36212;DHT22;22247;48.586;13.492;2023-06-19T16:18:38;34.70;68.30
36212;DHT22;22247;48.586;13.492;2023-06-19T16:21:05;35.00;66.30
36212;DHT22;22247;48.586;13.492;2023-06-19T16:23:29;34.90;67.30
36212;DHT22;22247;48.586;13.492;2023-06-19T16:25:55;35.00;67.10
36212;DHT22;22247;48.586;13.492;2023-06-19T16:28:23;34.30;70.00